sensor_id;sensor_type;location;lat;lon;timestamp;temperature;humidity
33564;DHT22;19894;48.452;11.494;2023-02-11T00:00:10;18.20;28.40
33564;DHT22;19894;48.452;11.494;2023-02-11T00:02:36;18.30;28.40
33564;DHT22;19894;48.452;11.494;2023-02-11T00:05:01;18.20;28.40
33564;DHT22;19894;48.452;11.494;2023-02-11T00:07:31;18.20;28.40
33564;DHT22;19894;48.452;11.494;2023-02-11T00:09:57;18.20;28.40
33564;DHT22;19894;48.452;11.494;2023-02-11T00:12:23;18.20;28.40
33564;DHT22;19894;48.452;11.494;2023-02-11T00:14:48;18.20;28.40
33564;DHT22;19894;48.452;11.494;2023-02-11T00:17:14;18.30;28.40
33564;DHT22;19894;48.452;11.494;2023-02-11T00:19:40;18.30;28.40
33564;DHT22;19894;48.452;11.494;2023-02-11T00:22:06;18.20;28.40
33564;DHT22;19894;48.452;11.494;2023-02-11T00:24:31;18.20;28.40
33564;DHT22;19894;48.452;11.494;2023-02-11T00:26:57;18.20;28.30
33564;DHT22;19894;48.452;11.494;2023-02-11T00:29:23;18.30;28.40
33564;DHT22;19894;48.452;11.494;2023-02-11T00:31:48;18.20;28.30
33564;DHT22;19894;48.452;11.494;2023-02-11T00:34:14;18.30;28.40
33564;DHT22;19894;48.452;11.494;2023-02-11T00:36:40;18.30;28.30
33564;DHT22;19894;48.452;11.494;2023-02-11T00:39:05;18.20;28.30
33564;DHT22;19894;48.452;11.494;2023-02-11T00:41:31;18.30;28.30
33564;DHT22;19894;48.452;11.494;2023-02-11T00:43:57;18.30;28.30
33564;DHT22;19894;48.452;11.494;2023-02-11T00:46:22;18.30;28.30
33564;DHT22;19894;48.452;11.494;2023-02-11T00:48:49;18.20;28.30
33564;DHT22;19894;48.452;11.494;2023-02-11T00:51:26;18.20;28.30
33564;DHT22;19894;48.452;11.494;2023-02-11T00:53:51;18.20;28.30
33564;DHT22;19894;48.452;11.494;2023-02-11T00:56:17;18.20;28.20
33564;DHT22;19894;48.452;11.494;2023-02-11T00:58:43;18.20;28.30
33564;DHT22;19894;48.452;11.494;2023-02-11T01:01:08;18.20;28.30
33564;DHT22;19894;48.452;11.494;2023-02-11T01:03:34;18.20;28.30
33564;DHT22;19894;48.452;11.494;2023-02-11T01:06:00;18.20;28.30
33564;DHT22;19894;48.452;11.494;2023-02-11T01:08:25;18.20;28.30
33564;DHT22;19894;48.452;11.494;2023-02-11T01:11:02;18.20;28.30
33564;DHT22;19894;48.452;11.494;2023-02-11T01:13:30;18.20;28.30
33564;DHT22;19894;48.452;11.494;2023-02-11T01:15:56;18.20;28.30
33564;DHT22;19894;48.452;11.494;2023-02-11T01:18:22;18.20;28.30
33564;DHT22;19894;48.452;11.494;2023-02-11T01:20:48;18.30;28.30
33564;DHT22;19894;48.452;11.494;2023-02-11T01:23:13;18.20;28.30
33564;DHT22;19894;48.452;11.494;2023-02-11T01:25:39;18.30;28.30
33564;DHT22;19894;48.452;11.494;2023-02-11T01:28:04;18.20;28.30
33564;DHT22;19894;48.452;11.494;2023-02-11T01:30:30;18.20;28.30
33564;DHT22;19894;48.452;11.494;2023-02-11T01:32:55;18.20;28.20
33564;DHT22;19894;48.452;11.494;2023-02-11T01:35:21;18.20;28.30
33564;DHT22;19894;48.452;11.494;2023-02-11T01:37:46;18.20;28.20
33564;DHT22;19894;48.452;11.494;2023-02-11T01:40:16;18.20;28.30
33564;DHT22;19894;48.452;11.494;2023-02-11T01:42:42;18.20;28.20
33564;DHT22;19894;48.452;11.494;2023-02-11T01:48:04;18.30;28.20
33564;DHT22;19894;48.452;11.494;2023-02-11T01:50:30;18.20;28.20
33564;DHT22;19894;48.452;11.494;2023-02-11T01:52:56;18.20;28.20
33564;DHT22;19894;48.452;11.494;2023-02-11T01:55:42;18.20;28.20
33564;DHT22;19894;48.452;11.494;2023-02-11T01:58:27;18.20;28.20
33564;DHT22;19894;48.452;11.494;2023-02-11T02:00:57;18.20;28.20
33564;DHT22;19894;48.452;11.494;2023-02-11T02:03:23;18.20;28.20
33564;DHT22;19894;48.452;11.494;2023-02-11T02:10:54;18.20;28.70
33564;DHT22;19894;48.452;11.494;2023-02-11T02:13:22;18.20;28.20
33564;DHT22;19894;48.452;11.494;2023-02-11T02:15:52;18.20;28.30
33564;DHT22;19894;48.452;11.494;2023-02-11T02:27:40;18.30;28.30
33564;DHT22;19894;48.452;11.494;2023-02-11T02:36:07;18.20;28.20
33564;DHT22;19894;48.452;11.494;2023-02-11T02:38:37;18.20;28.20
33564;DHT22;19894;48.452;11.494;2023-02-11T02:41:11;18.20;28.20
33564;DHT22;19894;48.452;11.494;2023-02-11T02:43:43;18.20;28.20
33564;DHT22;19894;48.452;11.494;2023-02-11T02:46:19;18.20;28.20
33564;DHT22;19894;48.452;11.494;2023-02-11T02:48:45;18.20;28.20
33564;DHT22;19894;48.452;11.494;2023-02-11T03:02:34;18.20;28.20
33564;DHT22;19894;48.452;11.494;2023-02-11T03:07:33;18.20;28.20
33564;DHT22;19894;48.452;11.494;2023-02-11T03:10:13;18.20;28.20
33564;DHT22;19894;48.452;11.494;2023-02-11T03:12:41;18.20;28.20
33564;DHT22;19894;48.452;11.494;2023-02-11T03:15:09;18.20;28.20
33564;DHT22;19894;48.452;11.494;2023-02-11T03:17:39;18.20;28.20
33564;DHT22;19894;48.452;11.494;2023-02-11T03:20:06;18.20;28.20
33564;DHT22;19894;48.452;11.494;2023-02-11T03:23:20;18.20;28.20
33564;DHT22;19894;48.452;11.494;2023-02-11T03:25:34;18.20;28.20
33564;DHT22;19894;48.452;11.494;2023-02-11T03:34:01;18.20;28.20
33564;DHT22;19894;48.452;11.494;2023-02-11T03:36:37;18.20;28.20
33564;DHT22;19894;48.452;11.494;2023-02-11T03:39:03;18.20;28.20
33564;DHT22;19894;48.452;11.494;2023-02-11T03:41:30;18.20;28.20
33564;DHT22;19894;48.452;11.494;2023-02-11T03:43:58;18.20;28.20
33564;DHT22;19894;48.452;11.494;2023-02-11T03:46:34;18.20;28.20
33564;DHT22;19894;48.452;11.494;2023-02-11T03:49:05;18.20;28.10
33564;DHT22;19894;48.452;11.494;2023-02-11T03:51:33;18.20;28.20
33564;DHT22;19894;48.452;11.494;2023-02-11T03:54:02;18.20;28.20
33564;DHT22;19894;48.452;11.494;2023-02-11T03:56:31;18.20;28.20
33564;DHT22;19894;48.452;11.494;2023-02-11T03:58:57;18.20;28.10
33564;DHT22;19894;48.452;11.494;2023-02-11T04:01:23;18.20;28.20
33564;DHT22;19894;48.452;11.494;2023-02-11T04:03:48;18.20;28.20
33564;DHT22;19894;48.452;11.494;2023-02-11T04:06:14;18.20;28.20
33564;DHT22;19894;48.452;11.494;2023-02-11T04:08:39;18.20;28.20
33564;DHT22;19894;48.452;11.494;2023-02-11T04:11:05;18.20;28.20
33564;DHT22;19894;48.452;11.494;2023-02-11T04:13:30;18.20;28.20
33564;DHT22;19894;48.452;11.494;2023-02-11T04:15:56;18.20;28.20
33564;DHT22;19894;48.452;11.494;2023-02-11T04:18:21;18.20;28.20
33564;DHT22;19894;48.452;11.494;2023-02-11T04:20:49;18.20;28.20
33564;DHT22;19894;48.452;11.494;2023-02-11T04:23:15;18.30;28.20
33564;DHT22;19894;48.452;11.494;2023-02-11T04:25:41;18.30;28.20
33564;DHT22;19894;48.452;11.494;2023-02-11T04:28:07;18.20;28.20
33564;DHT22;19894;48.452;11.494;2023-02-11T04:30:33;18.20;28.10
33564;DHT22;19894;48.452;11.494;2023-02-11T04:32:58;18.20;28.20
33564;DHT22;19894;48.452;11.494;2023-02-11T04:35:24;18.20;28.10
33564;DHT22;19894;48.452;11.494;2023-02-11T04:37:49;18.20;28.10
33564;DHT22;19894;48.452;11.494;2023-02-11T04:40:15;18.20;28.10
33564;DHT22;19894;48.452;11.494;2023-02-11T04:42:40;18.20;28.10
33564;DHT22;19894;48.452;11.494;2023-02-11T04:45:06;18.20;28.20
33564;DHT22;19894;48.452;11.494;2023-02-11T04:47:32;18.20;28.10
33564;DHT22;19894;48.452;11.494;2023-02-11T04:49:58;18.20;28.10
33564;DHT22;19894;48.452;11.494;2023-02-11T04:52:24;18.20;28.10
33564;DHT22;19894;48.452;11.494;2023-02-11T04:54:49;18.20;28.10
33564;DHT22;19894;48.452;11.494;2023-02-11T04:57:15;18.20;28.20
33564;DHT22;19894;48.452;11.494;2023-02-11T04:59:40;18.20;28.10
33564;DHT22;19894;48.452;11.494;2023-02-11T05:02:06;18.20;28.20
33564;DHT22;19894;48.452;11.494;2023-02-11T05:04:32;18.20;28.20
33564;DHT22;19894;48.452;11.494;2023-02-11T05:06:57;18.20;28.20
33564;DHT22;19894;48.452;11.494;2023-02-11T05:09:23;18.20;28.20
33564;DHT22;19894;48.452;11.494;2023-02-11T05:11:48;18.20;28.30
33564;DHT22;19894;48.452;11.494;2023-02-11T05:14:14;18.20;28.20
33564;DHT22;19894;48.452;11.494;2023-02-11T05:16:39;18.20;28.20
33564;DHT22;19894;48.452;11.494;2023-02-11T05:19:05;18.20;28.20
33564;DHT22;19894;48.452;11.494;2023-02-11T05:21:30;18.20;28.20
33564;DHT22;19894;48.452;11.494;2023-02-11T05:23:56;18.20;28.10
33564;DHT22;19894;48.452;11.494;2023-02-11T05:26:21;18.20;28.10
33564;DHT22;19894;48.452;11.494;2023-02-11T05:28:47;18.20;28.10
33564;DHT22;19894;48.452;11.494;2023-02-11T05:31:12;18.20;28.20
33564;DHT22;19894;48.452;11.494;2023-02-11T05:33:39;18.20;28.10
33564;DHT22;19894;48.452;11.494;2023-02-11T05:36:07;18.20;28.10
33564;DHT22;19894;48.452;11.494;2023-02-11T05:38:33;18.20;28.10
33564;DHT22;19894;48.452;11.494;2023-02-11T05:40:59;18.20;28.20
33564;DHT22;19894;48.452;11.494;2023-02-11T05:43:25;18.20;28.20
33564;DHT22;19894;48.452;11.494;2023-02-11T05:45:51;18.20;28.20
33564;DHT22;19894;48.452;11.494;2023-02-11T05:48:16;18.20;28.10
33564;DHT22;19894;48.452;11.494;2023-02-11T05:50:42;18.20;28.20
33564;DHT22;19894;48.452;11.494;2023-02-11T05:53:08;18.20;28.20
33564;DHT22;19894;48.452;11.494;2023-02-11T05:55:33;18.20;28.20
33564;DHT22;19894;48.452;11.494;2023-02-11T05:57:59;18.20;28.20
33564;DHT22;19894;48.452;11.494;2023-02-11T06:00:25;18.20;28.20
33564;DHT22;19894;48.452;11.494;2023-02-11T06:02:51;18.20;28.20
33564;DHT22;19894;48.452;11.494;2023-02-11T06:05:17;18.20;28.20
33564;DHT22;19894;48.452;11.494;2023-02-11T06:07:42;18.20;28.20
33564;DHT22;19894;48.452;11.494;2023-02-11T06:10:08;18.20;28.20
33564;DHT22;19894;48.452;11.494;2023-02-11T06:12:35;18.20;28.20
33564;DHT22;19894;48.452;11.494;2023-02-11T06:15:01;18.20;28.20
33564;DHT22;19894;48.452;11.494;2023-02-11T06:17:27;18.20;28.20
33564;DHT22;19894;48.452;11.494;2023-02-11T06:19:57;18.20;28.20
33564;DHT22;19894;48.452;11.494;2023-02-11T06:22:22;18.30;28.30
33564;DHT22;19894;48.452;11.494;2023-02-11T06:24:48;18.20;28.20
33564;DHT22;19894;48.452;11.494;2023-02-11T06:27:13;18.20;28.20
33564;DHT22;19894;48.452;11.494;2023-02-11T06:29:39;18.20;28.20
33564;DHT22;19894;48.452;11.494;2023-02-11T06:32:04;18.20;28.30
33564;DHT22;19894;48.452;11.494;2023-02-11T06:34:30;18.20;28.20
33564;DHT22;19894;48.452;11.494;2023-02-11T06:36:55;18.20;28.20
33564;DHT22;19894;48.452;11.494;2023-02-11T06:39:21;18.20;28.20
33564;DHT22;19894;48.452;11.494;2023-02-11T06:41:46;18.20;28.30
33564;DHT22;19894;48.452;11.494;2023-02-11T06:44:12;18.20;28.20
33564;DHT22;19894;48.452;11.494;2023-02-11T06:46:37;18.20;28.30
33564;DHT22;19894;48.452;11.494;2023-02-11T06:49:03;18.20;28.20
33564;DHT22;19894;48.452;11.494;2023-02-11T06:51:29;18.20;28.30
33564;DHT22;19894;48.452;11.494;2023-02-11T06:53:54;18.20;28.30
33564;DHT22;19894;48.452;11.494;2023-02-11T06:56:21;18.20;28.30
33564;DHT22;19894;48.452;11.494;2023-02-11T06:58:47;18.20;28.30
33564;DHT22;19894;48.452;11.494;2023-02-11T07:01:14;18.20;28.30
33564;DHT22;19894;48.452;11.494;2023-02-11T07:03:42;18.20;28.30
33564;DHT22;19894;48.452;11.494;2023-02-11T07:06:12;18.20;28.30
33564;DHT22;19894;48.452;11.494;2023-02-11T07:08:38;18.20;28.30
33564;DHT22;19894;48.452;11.494;2023-02-11T07:11:18;18.20;28.30
33564;DHT22;19894;48.452;11.494;2023-02-11T07:13:45;18.20;28.30
33564;DHT22;19894;48.452;11.494;2023-02-11T07:16:13;18.20;28.30
33564;DHT22;19894;48.452;11.494;2023-02-11T07:18:40;18.20;28.30
33564;DHT22;19894;48.452;11.494;2023-02-11T07:21:07;18.20;28.30
33564;DHT22;19894;48.452;11.494;2023-02-11T07:23:34;18.20;28.30
33564;DHT22;19894;48.452;11.494;2023-02-11T07:26:06;18.20;28.30
33564;DHT22;19894;48.452;11.494;2023-02-11T07:28:33;18.20;28.30
33564;DHT22;19894;48.452;11.494;2023-02-11T07:31:08;18.20;28.30
33564;DHT22;19894;48.452;11.494;2023-02-11T07:33:34;18.20;28.40
33564;DHT22;19894;48.452;11.494;2023-02-11T07:36:01;18.20;28.40
33564;DHT22;19894;48.452;11.494;2023-02-11T07:38:27;18.20;28.40
33564;DHT22;19894;48.452;11.494;2023-02-11T07:40:52;18.20;28.40
33564;DHT22;19894;48.452;11.494;2023-02-11T07:43:18;18.20;28.40
33564;DHT22;19894;48.452;11.494;2023-02-11T07:45:43;18.20;28.40
33564;DHT22;19894;48.452;11.494;2023-02-11T07:48:09;18.20;28.40
33564;DHT22;19894;48.452;11.494;2023-02-11T07:50:34;18.20;28.40
33564;DHT22;19894;48.452;11.494;2023-02-11T07:53:01;18.20;28.40
33564;DHT22;19894;48.452;11.494;2023-02-11T07:55:26;18.20;28.40
33564;DHT22;19894;48.452;11.494;2023-02-11T07:57:52;18.20;28.40
33564;DHT22;19894;48.452;11.494;2023-02-11T08:00:18;18.20;28.40
33564;DHT22;19894;48.452;11.494;2023-02-11T08:02:43;18.20;28.40
33564;DHT22;19894;48.452;11.494;2023-02-11T08:05:09;18.20;28.40
33564;DHT22;19894;48.452;11.494;2023-02-11T08:07:35;18.20;28.60
33564;DHT22;19894;48.452;11.494;2023-02-11T08:10:01;18.20;28.40
33564;DHT22;19894;48.452;11.494;2023-02-11T08:12:26;18.20;28.40
33564;DHT22;19894;48.452;11.494;2023-02-11T08:14:51;18.30;28.50
33564;DHT22;19894;48.452;11.494;2023-02-11T08:17:17;18.30;28.50
33564;DHT22;19894;48.452;11.494;2023-02-11T08:19:43;18.30;28.50
33564;DHT22;19894;48.452;11.494;2023-02-11T08:22:08;18.20;28.40
33564;DHT22;19894;48.452;11.494;2023-02-11T08:24:34;18.20;28.40
33564;DHT22;19894;48.452;11.494;2023-02-11T08:26:59;18.20;28.40
33564;DHT22;19894;48.452;11.494;2023-02-11T08:29:25;18.20;28.90
33564;DHT22;19894;48.452;11.494;2023-02-11T08:31:50;18.20;28.40
33564;DHT22;19894;48.452;11.494;2023-02-11T08:34:16;18.20;28.40
33564;DHT22;19894;48.452;11.494;2023-02-11T08:36:45;18.20;28.50
33564;DHT22;19894;48.452;11.494;2023-02-11T08:39:16;18.20;28.50
33564;DHT22;19894;48.452;11.494;2023-02-11T08:41:43;18.20;28.50
33564;DHT22;19894;48.452;11.494;2023-02-11T08:44:08;18.20;28.50
33564;DHT22;19894;48.452;11.494;2023-02-11T08:46:34;18.20;28.50
33564;DHT22;19894;48.452;11.494;2023-02-11T08:49:00;18.20;28.50
33564;DHT22;19894;48.452;11.494;2023-02-11T08:51:27;18.20;28.50
33564;DHT22;19894;48.452;11.494;2023-02-11T08:53:54;18.20;28.50
33564;DHT22;19894;48.452;11.494;2023-02-11T08:56:21;18.20;28.50
33564;DHT22;19894;48.452;11.494;2023-02-11T08:58:48;18.20;28.50
33564;DHT22;19894;48.452;11.494;2023-02-11T09:01:19;18.20;28.50
33564;DHT22;19894;48.452;11.494;2023-02-11T09:03:45;18.20;28.50
33564;DHT22;19894;48.452;11.494;2023-02-11T09:06:12;18.20;28.50
33564;DHT22;19894;48.452;11.494;2023-02-11T09:08:43;18.20;28.50
33564;DHT22;19894;48.452;11.494;2023-02-11T09:11:09;18.20;28.50
33564;DHT22;19894;48.452;11.494;2023-02-11T09:13:35;18.20;28.50
33564;DHT22;19894;48.452;11.494;2023-02-11T09:16:02;18.20;28.60
33564;DHT22;19894;48.452;11.494;2023-02-11T09:18:28;18.30;28.60
33564;DHT22;19894;48.452;11.494;2023-02-11T09:21:05;18.20;28.50
33564;DHT22;19894;48.452;11.494;2023-02-11T09:23:32;18.30;28.50
33564;DHT22;19894;48.452;11.494;2023-02-11T09:26:04;18.20;28.50
33564;DHT22;19894;48.452;11.494;2023-02-11T09:28:30;18.20;28.50
33564;DHT22;19894;48.452;11.494;2023-02-11T09:30:55;18.20;28.50
33564;DHT22;19894;48.452;11.494;2023-02-11T09:33:21;18.20;28.50
33564;DHT22;19894;48.452;11.494;2023-02-11T09:35:46;18.20;28.50
33564;DHT22;19894;48.452;11.494;2023-02-11T09:38:12;18.20;28.50
33564;DHT22;19894;48.452;11.494;2023-02-11T09:40:42;18.20;28.60
33564;DHT22;19894;48.452;11.494;2023-02-11T09:45:38;18.20;28.60
33564;DHT22;19894;48.452;11.494;2023-02-11T09:48:19;18.20;28.60
33564;DHT22;19894;48.452;11.494;2023-02-11T09:50:56;18.20;28.60
33564;DHT22;19894;48.452;11.494;2023-02-11T09:53:28;18.20;28.60
33564;DHT22;19894;48.452;11.494;2023-02-11T09:56:10;18.20;28.60
33564;DHT22;19894;48.452;11.494;2023-02-11T09:58:39;18.20;28.60
33564;DHT22;19894;48.452;11.494;2023-02-11T10:04:05;18.20;28.60
33564;DHT22;19894;48.452;11.494;2023-02-11T10:06:48;18.20;28.60
33564;DHT22;19894;48.452;11.494;2023-02-11T10:14:54;18.20;28.60
33564;DHT22;19894;48.452;11.494;2023-02-11T10:22:52;18.20;28.60
33564;DHT22;19894;48.452;11.494;2023-02-11T10:27:46;18.20;28.70
33564;DHT22;19894;48.452;11.494;2023-02-11T10:30:30;18.20;28.70
33564;DHT22;19894;48.452;11.494;2023-02-11T10:33:02;18.20;28.60
33564;DHT22;19894;48.452;11.494;2023-02-11T10:35:28;18.20;28.60
33564;DHT22;19894;48.452;11.494;2023-02-11T10:37:54;18.20;28.70
33564;DHT22;19894;48.452;11.494;2023-02-11T10:40:23;18.20;28.70
33564;DHT22;19894;48.452;11.494;2023-02-11T10:42:51;18.20;28.70
33564;DHT22;19894;48.452;11.494;2023-02-11T10:47:52;18.20;28.70
33564;DHT22;19894;48.452;11.494;2023-02-11T10:50:28;18.20;28.70
33564;DHT22;19894;48.452;11.494;2023-02-11T10:53:12;18.20;28.70
33564;DHT22;19894;48.452;11.494;2023-02-11T10:55:49;18.20;28.70
33564;DHT22;19894;48.452;11.494;2023-02-11T10:58:27;18.20;28.70
33564;DHT22;19894;48.452;11.494;2023-02-11T11:00:55;18.20;28.70
33564;DHT22;19894;48.452;11.494;2023-02-11T11:03:23;18.20;28.70
33564;DHT22;19894;48.452;11.494;2023-02-11T11:05:52;18.20;28.70
33564;DHT22;19894;48.452;11.494;2023-02-11T11:08:19;18.20;29.10
33564;DHT22;19894;48.452;11.494;2023-02-11T11:11:04;18.20;28.70
33564;DHT22;19894;48.452;11.494;2023-02-11T11:16:34;18.20;28.70
33564;DHT22;19894;48.452;11.494;2023-02-11T11:24:09;18.30;28.80
33564;DHT22;19894;48.452;11.494;2023-02-11T11:26:39;18.20;28.80
33564;DHT22;19894;48.452;11.494;2023-02-11T11:29:09;18.20;28.70
33564;DHT22;19894;48.452;11.494;2023-02-11T11:31:46;18.20;28.80
33564;DHT22;19894;48.452;11.494;2023-02-11T11:34:29;18.20;28.80
33564;DHT22;19894;48.452;11.494;2023-02-11T11:36:56;18.20;28.80
33564;DHT22;19894;48.452;11.494;2023-02-11T11:42:00;18.20;28.80
33564;DHT22;19894;48.452;11.494;2023-02-11T11:44:35;18.20;28.80
33564;DHT22;19894;48.452;11.494;2023-02-11T11:52:40;18.20;28.80
33564;DHT22;19894;48.452;11.494;2023-02-11T11:55:17;18.20;28.80
33564;DHT22;19894;48.452;11.494;2023-02-11T11:57:43;18.20;28.90
33564;DHT22;19894;48.452;11.494;2023-02-11T12:00:34;18.20;28.90
33564;DHT22;19894;48.452;11.494;2023-02-11T12:03:15;18.20;28.90
33564;DHT22;19894;48.452;11.494;2023-02-11T12:16:50;18.20;28.90
33564;DHT22;19894;48.452;11.494;2023-02-11T12:22:27;18.20;28.90
33564;DHT22;19894;48.452;11.494;2023-02-11T12:33:15;18.20;28.90
33564;DHT22;19894;48.452;11.494;2023-02-11T12:35:52;18.30;29.00
33564;DHT22;19894;48.452;11.494;2023-02-11T12:38:23;18.20;29.00
33564;DHT22;19894;48.452;11.494;2023-02-11T12:43:38;18.20;29.00
33564;DHT22;19894;48.452;11.494;2023-02-11T12:46:31;18.30;29.10
33564;DHT22;19894;48.452;11.494;2023-02-11T12:57:30;18.20;29.10
33564;DHT22;19894;48.452;11.494;2023-02-11T13:00:06;18.20;29.10
33564;DHT22;19894;48.452;11.494;2023-02-11T13:07:57;18.20;29.10
33564;DHT22;19894;48.452;11.494;2023-02-11T13:13:02;18.20;29.10
33564;DHT22;19894;48.452;11.494;2023-02-11T13:15:52;18.30;29.20
33564;DHT22;19894;48.452;11.494;2023-02-11T13:23:58;18.20;29.10
33564;DHT22;19894;48.452;11.494;2023-02-11T13:31:22;18.20;29.10
33564;DHT22;19894;48.452;11.494;2023-02-11T13:33:51;18.20;29.10
33564;DHT22;19894;48.452;11.494;2023-02-11T13:36:20;18.30;29.20
33564;DHT22;19894;48.452;11.494;2023-02-11T13:39:03;18.20;29.20
33564;DHT22;19894;48.452;11.494;2023-02-11T13:41:39;18.30;29.20
33564;DHT22;19894;48.452;11.494;2023-02-11T13:44:25;18.30;29.20
33564;DHT22;19894;48.452;11.494;2023-02-11T13:46:55;18.20;29.20
33564;DHT22;19894;48.452;11.494;2023-02-11T13:49:26;18.20;29.20
33564;DHT22;19894;48.452;11.494;2023-02-11T13:51:54;18.20;29.20
33564;DHT22;19894;48.452;11.494;2023-02-11T13:54:36;18.20;29.20
33564;DHT22;19894;48.452;11.494;2023-02-11T13:57:30;18.20;29.20
33564;DHT22;19894;48.452;11.494;2023-02-11T13:59:59;18.20;29.20
33564;DHT22;19894;48.452;11.494;2023-02-11T14:19:49;18.30;29.30
33564;DHT22;19894;48.452;11.494;2023-02-11T14:22:22;18.20;29.20
33564;DHT22;19894;48.452;11.494;2023-02-11T14:24:51;18.20;29.20
33564;DHT22;19894;48.452;11.494;2023-02-11T14:27:30;18.20;29.20
33564;DHT22;19894;48.452;11.494;2023-02-11T14:32:56;18.30;29.30
33564;DHT22;19894;48.452;11.494;2023-02-11T14:35:39;18.20;29.30
33564;DHT22;19894;48.452;11.494;2023-02-11T14:38:34;18.30;29.30
33564;DHT22;19894;48.452;11.494;2023-02-11T14:43:52;18.20;29.30
33564;DHT22;19894;48.452;11.494;2023-02-11T14:46:22;18.20;29.30
33564;DHT22;19894;48.452;11.494;2023-02-11T14:48:51;18.30;29.40
33564;DHT22;19894;48.452;11.494;2023-02-11T14:51:24;18.20;29.40
33564;DHT22;19894;48.452;11.494;2023-02-11T14:53:53;18.20;29.40
33564;DHT22;19894;48.452;11.494;2023-02-11T14:56:26;18.30;29.40
33564;DHT22;19894;48.452;11.494;2023-02-11T14:58:53;18.20;29.40
33564;DHT22;19894;48.452;11.494;2023-02-11T15:01:33;18.20;29.50
33564;DHT22;19894;48.452;11.494;2023-02-11T15:04:02;18.20;29.40
33564;DHT22;19894;48.452;11.494;2023-02-11T15:06:37;18.20;29.40
33564;DHT22;19894;48.452;11.494;2023-02-11T15:09:12;18.20;29.40
33564;DHT22;19894;48.452;11.494;2023-02-11T15:11:39;18.20;29.40
33564;DHT22;19894;48.452;11.494;2023-02-11T15:14:32;18.30;29.50
33564;DHT22;19894;48.452;11.494;2023-02-11T15:17:02;18.30;29.50
33564;DHT22;19894;48.452;11.494;2023-02-11T15:19:37;18.30;29.40
33564;DHT22;19894;48.452;11.494;2023-02-11T15:22:05;18.30;29.40
33564;DHT22;19894;48.452;11.494;2023-02-11T15:24:33;18.30;29.70
33564;DHT22;19894;48.452;11.494;2023-02-11T15:29:38;18.30;29.40
33564;DHT22;19894;48.452;11.494;2023-02-11T15:32:13;18.30;29.40
33564;DHT22;19894;48.452;11.494;2023-02-11T15:34:40;18.30;29.50
33564;DHT22;19894;48.452;11.494;2023-02-11T15:37:06;18.30;29.50
33564;DHT22;19894;48.452;11.494;2023-02-11T15:39:36;18.30;29.50
33564;DHT22;19894;48.452;11.494;2023-02-11T15:42:27;18.20;29.50
33564;DHT22;19894;48.452;11.494;2023-02-11T15:47:51;18.30;29.50
33564;DHT22;19894;48.452;11.494;2023-02-11T15:50:20;18.30;29.50
33564;DHT22;19894;48.452;11.494;2023-02-11T15:52:46;18.20;29.50
33564;DHT22;19894;48.452;11.494;2023-02-11T15:55:14;18.20;29.50
33564;DHT22;19894;48.452;11.494;2023-02-11T15:57:46;18.20;29.50
33564;DHT22;19894;48.452;11.494;2023-02-11T16:00:18;18.20;29.50
33564;DHT22;19894;48.452;11.494;2023-02-11T16:02:45;18.20;29.60
33564;DHT22;19894;48.452;11.494;2023-02-11T16:05:32;18.30;29.60
33564;DHT22;19894;48.452;11.494;2023-02-11T16:08:00;18.20;29.60
33564;DHT22;19894;48.452;11.494;2023-02-11T16:10:36;18.30;29.60
33564;DHT22;19894;48.452;11.494;2023-02-11T16:18:30;18.30;29.60
33564;DHT22;19894;48.452;11.494;2023-02-11T16:20:57;18.30;29.60
33564;DHT22;19894;48.452;11.494;2023-02-11T16:23:31;18.30;29.60
33564;DHT22;19894;48.452;11.494;2023-02-11T16:26:02;18.30;29.60
33564;DHT22;19894;48.452;11.494;2023-02-11T16:28:30;18.30;29.60
33564;DHT22;19894;48.452;11.494;2023-02-11T16:30:56;18.30;29.60
33564;DHT22;19894;48.452;11.494;2023-02-11T16:33:22;18.30;29.60
33564;DHT22;19894;48.452;11.494;2023-02-11T16:35:47;18.30;29.60
33564;DHT22;19894;48.452;11.494;2023-02-11T16:38:15;18.30;29.60
33564;DHT22;19894;48.452;11.494;2023-02-11T16:40:40;18.30;29.60
33564;DHT22;19894;48.452;11.494;2023-02-11T16:43:09;18.30;29.60
33564;DHT22;19894;48.452;11.494;2023-02-11T16:45:37;18.30;29.60
33564;DHT22;19894;48.452;11.494;2023-02-11T16:48:06;18.20;29.60
33564;DHT22;19894;48.452;11.494;2023-02-11T16:50:33;18.30;29.70
33564;DHT22;19894;48.452;11.494;2023-02-11T16:52:59;18.20;29.60
33564;DHT22;19894;48.452;11.494;2023-02-11T16:55:26;18.30;29.70
33564;DHT22;19894;48.452;11.494;2023-02-11T16:57:52;18.20;29.70
33564;DHT22;19894;48.452;11.494;2023-02-11T17:00:19;18.20;29.70
33564;DHT22;19894;48.452;11.494;2023-02-11T17:02:45;18.30;29.70
33564;DHT22;19894;48.452;11.494;2023-02-11T17:05:21;18.30;29.70
33564;DHT22;19894;48.452;11.494;2023-02-11T17:07:47;18.30;29.70
33564;DHT22;19894;48.452;11.494;2023-02-11T17:10:21;18.30;29.70
33564;DHT22;19894;48.452;11.494;2023-02-11T17:12:48;18.30;29.70
33564;DHT22;19894;48.452;11.494;2023-02-11T17:15:14;18.30;29.70
33564;DHT22;19894;48.452;11.494;2023-02-11T17:17:40;18.30;29.70
33564;DHT22;19894;48.452;11.494;2023-02-11T17:20:06;18.30;29.70
33564;DHT22;19894;48.452;11.494;2023-02-11T17:22:32;18.30;29.70
33564;DHT22;19894;48.452;11.494;2023-02-11T17:24:58;18.30;29.70
33564;DHT22;19894;48.452;11.494;2023-02-11T17:27:24;18.30;29.70
33564;DHT22;19894;48.452;11.494;2023-02-11T17:29:49;18.30;29.70
33564;DHT22;19894;48.452;11.494;2023-02-11T17:32:15;18.30;29.70
33564;DHT22;19894;48.452;11.494;2023-02-11T17:34:40;18.30;29.70
33564;DHT22;19894;48.452;11.494;2023-02-11T17:37:06;18.30;29.70
33564;DHT22;19894;48.452;11.494;2023-02-11T17:39:37;18.30;29.70
33564;DHT22;19894;48.452;11.494;2023-02-11T17:42:03;18.30;29.70
33564;DHT22;19894;48.452;11.494;2023-02-11T17:44:30;18.30;29.70
33564;DHT22;19894;48.452;11.494;2023-02-11T17:46:56;18.30;29.80
33564;DHT22;19894;48.452;11.494;2023-02-11T17:49:21;18.30;29.80
33564;DHT22;19894;48.452;11.494;2023-02-11T17:51:47;18.20;29.70
33564;DHT22;19894;48.452;11.494;2023-02-11T17:54:15;18.30;29.80
33564;DHT22;19894;48.452;11.494;2023-02-11T17:56:42;18.20;29.70
33564;DHT22;19894;48.452;11.494;2023-02-11T17:59:09;18.30;29.80
33564;DHT22;19894;48.452;11.494;2023-02-11T18:01:36;18.30;29.80
33564;DHT22;19894;48.452;11.494;2023-02-11T18:04:03;18.30;29.80
33564;DHT22;19894;48.452;11.494;2023-02-11T18:06:30;18.20;29.70
33564;DHT22;19894;48.452;11.494;2023-02-11T18:08:59;18.30;29.80
33564;DHT22;19894;48.452;11.494;2023-02-11T18:11:27;18.30;29.80